createdAt,value
2016-11-14T00:00:30.231Z,-3.23
2016-11-14T00:01:30.249Z,-3.12
2016-11-14T00:02:30.257Z,-3.3
2016-11-14T00:03:30.302Z,-3.27
2016-11-14T00:04:30.283Z,-3.36
2016-11-14T00:05:30.300Z,-3.45
2016-11-14T00:06:30.306Z,-3.49
2016-11-14T00:07:30.322Z,-3.56
2016-11-14T00:08:30.332Z,-3.56
2016-11-14T00:10:30.360Z,-3.59
2016-11-14T00:11:30.367Z,-3.57
2016-11-14T00:12:30.380Z,-3.62
2016-11-14T00:14:30.411Z,-3.63
2016-11-14T00:15:30.426Z,-3.6
2016-11-14T00:16:30.432Z,-3.63
2016-11-14T00:17:30.449Z,-3.48
2016-11-14T00:18:30.470Z,-3.46
2016-11-14T00:19:30.471Z,-3.45
2016-11-14T00:20:30.486Z,-3.52
2016-11-14T00:21:30.499Z,-3.57
2016-11-14T00:22:30.512Z,-3.6
2016-11-14T00:24:30.581Z,-3.57
2016-11-14T00:25:30.594Z,-3.59
2016-11-14T00:26:30.561Z,-3.6
2016-11-14T00:27:30.673Z,-3.6
2016-11-14T00:29:30.595Z,-3.56
2016-11-14T00:30:30.616Z,-3.56
2016-11-14T00:31:30.617Z,-3.6
2016-11-14T00:32:30.636Z,-3.67
2016-11-14T00:33:30.652Z,-3.67
2016-11-14T00:35:30.671Z,-3.69
2016-11-14T00:36:45.598Z,-3.57
2016-11-14T00:37:30.711Z,-3.62
2016-11-14T00:38:30.711Z,-3.69
2016-11-14T00:39:30.724Z,-3.69
2016-11-14T00:40:30.737Z,-3.76
2016-11-14T00:41:30.795Z,-3.85
2016-11-14T00:42:30.758Z,-3.79
2016-11-14T00:43:30.770Z,-3.75
2016-11-14T00:44:30.790Z,-3.62
2016-11-14T00:45:45.708Z,-3.52
2016-11-14T00:46:30.870Z,-3.43
2016-11-14T00:47:30.826Z,-3.41
2016-11-14T00:48:30.836Z,-3.57
2016-11-14T00:49:30.850Z,-3.62
2016-11-14T00:50:30.856Z,-3.69
2016-11-14T00:51:30.918Z,-3.81
2016-11-14T00:52:30.882Z,-3.86
2016-11-14T00:53:30.898Z,-3.91
2016-11-14T00:54:30.910Z,-3.9
2016-11-14T00:55:30.924Z,-3.93
2016-11-14T00:56:30.930Z,-3.94
2016-11-14T00:57:30.947Z,-3.93
2016-11-14T00:58:30.960Z,-4.07
2016-11-14T01:00:30.983Z,-3.94
2016-11-14T01:01:45.911Z,-3.86
2016-11-14T01:02:31.036Z,-3.86
2016-11-14T01:03:31.028Z,-3.94
2016-11-14T01:04:31.337Z,-3.93
2016-11-14T01:05:31.079Z,-3.91
2016-11-14T01:06:31.051Z,-3.88
2016-11-14T01:07:31.064Z,-3.86
2016-11-14T01:08:31.079Z,-3.88
2016-11-14T01:09:31.092Z,-3.85
2016-11-14T01:11:31.114Z,-3.9
2016-11-14T01:12:31.130Z,-3.93
2016-11-14T01:13:31.143Z,-3.9
2016-11-14T01:14:31.161Z,-3.97
2016-11-14T01:15:31.209Z,-3.94
2016-11-14T01:18:31.202Z,-4
2016-11-14T01:19:31.216Z,-4.14
2016-11-14T01:20:31.226Z,-4.1
2016-11-14T01:21:31.244Z,-4.11
2016-11-14T01:22:31.248Z,-4.15
2016-11-14T01:23:31.263Z,-4.14
2016-11-14T01:24:31.278Z,-3.97
2016-11-14T01:25:46.199Z,-3.86
2016-11-14T01:26:46.210Z,-3.83
2016-11-14T01:27:31.313Z,-3.91
2016-11-14T01:28:31.380Z,-3.82
2016-11-14T01:29:31.339Z,-3.86
2016-11-14T01:30:31.355Z,-3.83
2016-11-14T01:31:31.362Z,-3.93
2016-11-14T01:32:31.371Z,-3.94
2016-11-14T01:33:46.296Z,-4.03
2016-11-14T01:34:31.398Z,-3.93
2016-11-14T01:35:31.409Z,-3.96
2016-11-14T01:36:31.423Z,-4.03
2016-11-14T01:37:31.435Z,-4.17
2016-11-14T01:38:31.745Z,-4.04
2016-11-14T01:39:31.455Z,-4.06
2016-11-14T01:40:31.474Z,-4.11
2016-11-14T01:41:31.482Z,-4.15
2016-11-14T01:42:31.497Z,-4.11
2016-11-14T01:43:31.509Z,-4.14
2016-11-14T01:46:31.542Z,-4.06
2016-11-14T01:47:31.563Z,-4.14
2016-11-14T01:48:46.481Z,-4.18
2016-11-14T01:49:31.579Z,-4.22
2016-11-14T01:50:31.594Z,-4.15
2016-11-14T01:51:31.609Z,-4.07
2016-11-14T01:52:31.617Z,-4.14
2016-11-14T01:53:31.629Z,-4.01
2016-11-14T01:54:46.554Z,-4.04
2016-11-14T01:55:31.651Z,-4.12
2016-11-14T01:56:31.667Z,-4.21
2016-11-14T01:57:31.713Z,-4.15
2016-11-14T01:58:31.691Z,-4.18
2016-11-14T01:59:31.698Z,-4.28
2016-11-14T02:00:31.712Z,-4.18
2016-11-14T02:01:31.726Z,-4.29
2016-11-14T02:03:31.760Z,-4.29
2016-11-14T02:04:31.782Z,-4.33
2016-11-14T02:05:31.777Z,-4.3
2016-11-14T02:06:31.785Z,-4.32
2016-11-14T02:07:31.800Z,-4.35
2016-11-14T02:08:31.812Z,-4.32
2016-11-14T02:09:31.907Z,-4.32
2016-11-14T02:10:31.832Z,-4.32
2016-11-14T02:11:31.843Z,-4.33
2016-11-14T02:12:31.857Z,-4.28
2016-11-14T02:13:46.783Z,-4.2
2016-11-14T02:14:31.883Z,-4.17
2016-11-14T02:15:31.897Z,-4.1
2016-11-14T02:16:31.902Z,-4.17
2016-11-14T02:17:31.922Z,-4.22
2016-11-14T02:18:31.975Z,-4.25
2016-11-14T02:19:31.977Z,-4.33
2016-11-14T02:20:46.865Z,-4.43
2016-11-14T02:21:31.969Z,-4.43
2016-11-14T02:22:31.979Z,-4.49
2016-11-14T02:23:31.995Z,-4.43
2016-11-14T02:24:32.004Z,-4.5
2016-11-14T02:25:32.018Z,-4.53
2016-11-14T02:26:32.345Z,-4.46
2016-11-14T02:27:46.952Z,-4.53
2016-11-14T02:28:32.054Z,-4.42
2016-11-14T02:29:32.066Z,-4.24
2016-11-14T02:30:32.079Z,-4.21
2016-11-14T02:31:32.085Z,-4.29
2016-11-14T02:32:32.098Z,-4.29
2016-11-14T02:33:32.110Z,-4.2
2016-11-14T02:34:32.172Z,-4.28
2016-11-14T02:36:47.061Z,-4.24
2016-11-14T02:37:32.169Z,-4.07
2016-11-14T02:38:32.181Z,-4.11
2016-11-14T02:39:32.264Z,-4.12
2016-11-14T02:40:32.195Z,-4.14
2016-11-14T02:41:32.205Z,-4.06
2016-11-14T02:42:32.219Z,-4.15
2016-11-14T02:43:47.143Z,-4.36
2016-11-14T02:44:32.299Z,-4.39
2016-11-14T02:45:32.258Z,-4.36
2016-11-14T02:46:32.266Z,-4.29
2016-11-14T02:49:32.298Z,-4.2
2016-11-14T02:50:32.315Z,-4.3
2016-11-14T02:51:32.324Z,-4.24
2016-11-14T02:52:47.250Z,-4.22
2016-11-14T02:53:32.353Z,-4.25
2016-11-14T02:54:32.360Z,-4.28
2016-11-14T02:55:32.370Z,-4.36
2016-11-14T02:56:32.382Z,-4.35
2016-11-14T02:57:32.394Z,-4.2
2016-11-14T02:58:47.322Z,-4.12
2016-11-14T02:59:47.331Z,-4.15
2016-11-14T03:00:32.431Z,-4.11
2016-11-14T03:01:32.465Z,-4.22
2016-11-14T03:02:32.453Z,-4.24
2016-11-14T03:03:32.467Z,-4.14
2016-11-14T03:04:32.526Z,-4.24
2016-11-14T03:06:32.505Z,-4.25
2016-11-14T03:07:32.517Z,-4.28
2016-11-14T03:09:32.587Z,-4.43
2016-11-14T03:10:32.549Z,-4.53
2016-11-14T03:11:32.573Z,-4.5
2016-11-14T03:12:32.583Z,-4.51
2016-11-14T03:13:32.587Z,-4.54
2016-11-14T03:14:32.648Z,-4.42
2016-11-14T03:15:47.521Z,-4.39
2016-11-14T03:16:32.623Z,-4.39
2016-11-14T03:17:32.633Z,-4.36
2016-11-14T03:18:32.646Z,-4.42
2016-11-14T03:19:32.708Z,-4.35
2016-11-14T03:20:32.670Z,-4.35
2016-11-14T03:22:32.695Z,-4.4
2016-11-14T03:24:32.719Z,-4.3
2016-11-14T03:25:32.729Z,-4.28
2016-11-14T03:26:32.738Z,-4.33
2016-11-14T03:27:32.748Z,-4.35
2016-11-14T03:28:32.768Z,-4.29
2016-11-14T03:29:32.772Z,-4.36
2016-11-14T03:30:32.791Z,-4.33
2016-11-14T03:31:32.797Z,-4.38
2016-11-14T03:32:32.815Z,-4.43
2016-11-14T03:33:32.829Z,-4.43
2016-11-14T03:34:32.834Z,-4.56
2016-11-14T03:35:32.843Z,-4.6
2016-11-14T03:36:32.860Z,-4.75
2016-11-14T03:38:32.887Z,-4.53
2016-11-14T03:39:32.899Z,-4.39
2016-11-14T03:40:32.904Z,-4.33
2016-11-14T03:41:32.921Z,-4.24
2016-11-14T03:42:32.932Z,-4.29
2016-11-14T03:43:32.947Z,-4.15
2016-11-14T03:44:47.867Z,-4.24
2016-11-14T03:45:32.967Z,-4.3
2016-11-14T03:46:32.977Z,-4.33
2016-11-14T03:47:47.901Z,-4.58
2016-11-14T03:48:33.006Z,-4.53
2016-11-14T03:49:33.012Z,-4.63
2016-11-14T03:50:33.026Z,-4.74
2016-11-14T03:51:33.040Z,-4.69
2016-11-14T03:53:33.058Z,-4.68
2016-11-14T03:54:33.072Z,-4.63
2016-11-14T03:55:47.998Z,-4.72
2016-11-14T03:56:33.091Z,-4.65
2016-11-14T03:57:33.114Z,-4.67
2016-11-14T03:58:48.035Z,-4.63
2016-11-14T03:59:33.127Z,-4.71
2016-11-14T04:00:33.138Z,-4.72
2016-11-14T04:01:33.156Z,-4.83
2016-11-14T04:02:33.169Z,-4.68
2016-11-14T04:03:33.227Z,-4.75
2016-11-14T04:04:48.150Z,-4.65
2016-11-14T04:05:33.200Z,-4.68
2016-11-14T04:06:33.215Z,-4.51
2016-11-14T04:07:33.222Z,-4.56
2016-11-14T04:09:33.250Z,-4.63
2016-11-14T04:10:33.257Z,-4.71
2016-11-14T04:11:48.183Z,-4.63
2016-11-14T04:12:33.283Z,-4.6
2016-11-14T04:13:33.293Z,-4.54
2016-11-14T04:14:33.304Z,-4.51
2016-11-14T04:15:33.318Z,-4.58
2016-11-14T04:16:33.326Z,-4.58
2016-11-14T04:17:33.390Z,-4.58
2016-11-14T04:18:33.352Z,-4.77
2016-11-14T04:19:33.364Z,-4.85
2016-11-14T04:20:33.675Z,-4.78
2016-11-14T04:21:33.385Z,-4.68
2016-11-14T04:22:33.399Z,-4.57
2016-11-14T04:23:33.446Z,-4.71
2016-11-14T04:24:33.422Z,-4.77
2016-11-14T04:26:33.443Z,-4.79
2016-11-14T04:27:48.372Z,-4.71
2016-11-14T04:28:33.467Z,-4.69
2016-11-14T04:29:33.483Z,-4.57
2016-11-14T04:30:33.489Z,-4.51
2016-11-14T04:31:33.504Z,-4.54
2016-11-14T04:32:48.431Z,-4.63
2016-11-14T04:33:33.528Z,-4.5
2016-11-14T04:34:33.545Z,-4.61
2016-11-14T04:35:33.556Z,-4.72
2016-11-14T04:36:33.562Z,-4.75
2016-11-14T04:37:33.575Z,-4.79
2016-11-14T04:38:33.581Z,-4.9
2016-11-14T04:40:33.608Z,-4.78
2016-11-14T04:41:33.623Z,-4.89
2016-11-14T04:42:33.635Z,-4.93
2016-11-14T04:43:48.555Z,-4.93
2016-11-14T04:44:33.653Z,-4.95
2016-11-14T04:45:33.666Z,-4.99
2016-11-14T04:46:33.678Z,-5
2016-11-14T04:47:33.693Z,-5.03
2016-11-14T04:48:33.702Z,-5.04
2016-11-14T04:49:33.708Z,-5.11
2016-11-14T04:50:48.638Z,-4.92
2016-11-14T04:51:33.740Z,-4.89
2016-11-14T04:52:33.747Z,-4.93
2016-11-14T04:53:33.760Z,-5
2016-11-14T04:54:33.799Z,-5.03
2016-11-14T04:57:33.834Z,-4.99
2016-11-14T04:58:48.730Z,-4.99
2016-11-14T04:59:33.829Z,-5
2016-11-14T05:00:33.841Z,-5.07
2016-11-14T05:01:33.848Z,-5.22
2016-11-14T05:02:33.862Z,-5.14
2016-11-14T05:03:33.883Z,-5.14
2016-11-14T05:04:48.801Z,-5.19
2016-11-14T05:05:33.903Z,-5.14
2016-11-14T05:06:33.906Z,-5.14
2016-11-14T05:07:33.924Z,-5.19
2016-11-14T05:08:33.932Z,-5.11
2016-11-14T05:09:33.995Z,-5.11
2016-11-14T05:11:33.966Z,-5.11
2016-11-14T05:12:33.977Z,-5.08
2016-11-14T05:13:33.992Z,-5.08
2016-11-14T05:14:34.007Z,-4.97
2016-11-14T05:15:34.012Z,-5.08
2016-11-14T05:16:34.025Z,-5.1
2016-11-14T05:17:34.032Z,-4.95
2016-11-14T05:18:34.044Z,-4.93
2016-11-14T05:19:34.106Z,-4.85
2016-11-14T05:20:34.102Z,-4.87
2016-11-14T05:21:34.083Z,-4.87
2016-11-14T05:22:34.090Z,-4.93
2016-11-14T05:23:34.104Z,-5.1
2016-11-14T05:24:34.116Z,-5.04
2016-11-14T05:25:34.129Z,-5.14
2016-11-14T05:26:34.136Z,-5.13
2016-11-14T05:27:34.154Z,-5.1
2016-11-14T05:28:34.168Z,-5.14
2016-11-14T05:29:34.169Z,-5.08
2016-11-14T05:30:49.099Z,-5.17
2016-11-14T05:31:34.195Z,-5.18
2016-11-14T05:32:34.208Z,-5.27
2016-11-14T05:33:34.220Z,-5.26
2016-11-14T05:34:34.279Z,-5.35
2016-11-14T05:35:34.242Z,-5.19
2016-11-14T05:36:34.259Z,-5.19
2016-11-14T05:37:34.265Z,-5.1
2016-11-14T05:38:34.278Z,-5.11
2016-11-14T05:39:34.291Z,-5.06
2016-11-14T05:40:34.302Z,-5.14
2016-11-14T05:41:34.316Z,-5.11
2016-11-14T05:42:34.325Z,-5.22
2016-11-14T05:43:34.329Z,-5.17
2016-11-14T05:44:34.350Z,-5.18
2016-11-14T05:45:34.354Z,-5.18
2016-11-14T05:46:49.283Z,-5.17
2016-11-14T05:47:34.377Z,-5.17
2016-11-14T05:48:34.393Z,-5.13
2016-11-14T05:49:34.407Z,-5.04
2016-11-14T05:50:34.416Z,-5.03
2016-11-14T05:51:34.425Z,-4.96
2016-11-14T05:52:34.436Z,-5.08
2016-11-14T05:53:34.445Z,-5.14
2016-11-14T05:54:34.456Z,-5.13
2016-11-14T05:55:34.470Z,-5.26
2016-11-14T05:56:34.482Z,-5.35
2016-11-14T05:57:34.493Z,-5.22
2016-11-14T05:58:34.559Z,-5.46
2016-11-14T05:59:34.518Z,-5.26
2016-11-14T06:00:34.526Z,-5.33
2016-11-14T06:01:34.541Z,-5.35
2016-11-14T06:02:49.461Z,-5.36
2016-11-14T06:03:34.562Z,-5.37
2016-11-14T06:04:34.571Z,-5.33
2016-11-14T06:05:34.597Z,-5.33
2016-11-14T06:06:34.592Z,-5.53
2016-11-14T06:07:34.604Z,-5.37
2016-11-14T06:08:34.615Z,-5.44
2016-11-14T06:09:34.628Z,-5.48
2016-11-14T06:10:34.639Z,-5.44
2016-11-14T06:11:34.701Z,-5.47
2016-11-14T06:12:34.662Z,-5.48
2016-11-14T06:13:34.670Z,-5.46
2016-11-14T06:14:34.689Z,-5.41
2016-11-14T06:15:34.694Z,-5.36
2016-11-14T06:17:34.716Z,-5.1
2016-11-14T06:19:34.742Z,-5.08
2016-11-14T06:20:34.755Z,-5.19
2016-11-14T06:21:49.680Z,-5.18
2016-11-14T06:22:34.771Z,-5.11
2016-11-14T06:23:34.786Z,-5.1
2016-11-14T06:24:34.798Z,-5.14
2016-11-14T06:25:34.812Z,-5.08
2016-11-14T06:26:34.818Z,-4.93
2016-11-14T06:27:49.743Z,-4.87
2016-11-14T06:28:49.751Z,-4.81
2016-11-14T06:29:34.848Z,-4.87
2016-11-14T06:30:34.866Z,-4.93
2016-11-14T06:31:34.874Z,-5.17
2016-11-14T06:32:34.896Z,-5.1
2016-11-14T06:33:49.813Z,-5.32
2016-11-14T06:34:34.911Z,-5.27
2016-11-14T06:35:34.919Z,-5.35
2016-11-14T06:36:34.936Z,-5.32
2016-11-14T06:37:34.945Z,-5.22
2016-11-14T06:38:34.955Z,-5.29
2016-11-14T06:39:34.971Z,-5.36
2016-11-14T06:40:34.981Z,-5.32
2016-11-14T06:41:49.901Z,-5.35
2016-11-14T06:42:35.002Z,-5.27
2016-11-14T06:43:35.012Z,-5.29
2016-11-14T06:44:35.028Z,-5.13
2016-11-14T06:46:35.102Z,-4.92
2016-11-14T06:47:35.054Z,-4.78
2016-11-14T06:48:35.074Z,-4.71
2016-11-14T06:49:35.080Z,-4.79
2016-11-14T06:50:35.092Z,-4.87
2016-11-14T06:51:35.106Z,-4.99
2016-11-14T06:52:35.115Z,-5.13
2016-11-14T06:53:50.043Z,-5.13
2016-11-14T06:54:35.137Z,-5.17
2016-11-14T06:55:50.065Z,-5.22
2016-11-14T06:56:35.161Z,-5.25
2016-11-14T06:57:35.170Z,-5.18
2016-11-14T06:59:35.229Z,-5.03
2016-11-14T07:00:35.202Z,-4.81
2016-11-14T07:01:35.218Z,-4.69
2016-11-14T07:02:35.228Z,-4.78
2016-11-14T07:03:35.240Z,-4.87
2016-11-14T07:04:35.253Z,-4.86
2016-11-14T07:06:35.274Z,-5.03
2016-11-14T07:07:35.286Z,-4.99
2016-11-14T07:08:35.299Z,-5
2016-11-14T07:09:35.310Z,-4.99
2016-11-14T07:10:35.328Z,-4.97
2016-11-14T07:12:50.256Z,-4.83
2016-11-14T07:13:35.353Z,-4.78
2016-11-14T07:14:35.366Z,-4.83
2016-11-14T07:15:35.411Z,-4.77
2016-11-14T07:16:35.387Z,-4.77
2016-11-14T07:17:35.402Z,-4.74
2016-11-14T07:19:35.423Z,-4.69
2016-11-14T07:20:35.439Z,-4.68
2016-11-14T07:21:50.359Z,-4.68
2016-11-14T07:22:35.458Z,-4.75
2016-11-14T07:23:35.471Z,-4.74
2016-11-14T07:24:35.482Z,-4.69
2016-11-14T07:25:35.495Z,-4.56
2016-11-14T07:26:35.504Z,-4.68
2016-11-14T07:27:35.835Z,-4.49
2016-11-14T07:28:35.527Z,-4.36
2016-11-14T07:29:35.543Z,-4.33
2016-11-14T07:30:50.463Z,-4.24
2016-11-14T07:31:50.474Z,-4.14
2016-11-14T07:32:35.582Z,-4.06
2016-11-14T07:33:35.619Z,-4.1
2016-11-14T07:35:35.612Z,-4.1
2016-11-14T07:36:35.650Z,-3.99
2016-11-14T07:37:50.548Z,-3.93
2016-11-14T07:39:35.658Z,-3.72
2016-11-14T07:40:35.673Z,-3.72
2016-11-14T07:41:50.598Z,-3.69
2016-11-14T07:42:35.694Z,-3.64
2016-11-14T07:43:35.704Z,-3.57
2016-11-14T07:44:35.724Z,-3.54
2016-11-14T07:45:35.738Z,-3.49
2016-11-14T07:46:35.744Z,-3.43
2016-11-14T07:47:35.756Z,-3.28
2016-11-14T07:48:35.768Z,-3.28
2016-11-14T07:50:35.793Z,-3.3
2016-11-14T07:51:50.727Z,-3.27
2016-11-14T07:52:35.819Z,-3.3
2016-11-14T07:53:50.744Z,-3.25
2016-11-14T07:54:35.839Z,-3.25
2016-11-14T07:55:35.982Z,-3.3
2016-11-14T07:56:35.866Z,-3.3
2016-11-14T07:57:35.875Z,-3.33
2016-11-14T07:58:35.890Z,-3.1
2016-11-14T07:59:35.902Z,-3.07
2016-11-14T08:00:35.912Z,-2.99
2016-11-14T08:01:35.928Z,-2.92
2016-11-14T08:02:35.976Z,-2.97
2016-11-14T08:03:35.951Z,-2.91
2016-11-14T08:04:35.968Z,-2.89
2016-11-14T08:05:35.977Z,-2.84
2016-11-14T08:06:36.005Z,-2.77
2016-11-14T08:09:36.340Z,-2.55
2016-11-14T08:11:36.056Z,-2.42
2016-11-14T08:12:36.065Z,-2.34
2016-11-14T08:13:36.083Z,-2.24
2016-11-14T08:14:51.008Z,-2.18
2016-11-14T08:15:36.105Z,-2.26
2016-11-14T08:16:36.120Z,-2.15
2016-11-14T08:17:36.134Z,-2.13
2016-11-14T08:18:36.445Z,-2.12
2016-11-14T08:19:36.158Z,-2.13
2016-11-14T08:20:36.174Z,-2.09
2016-11-14T08:21:36.186Z,-2.05
2016-11-14T08:22:36.230Z,-1.92
2016-11-14T08:23:36.207Z,-1.8
2016-11-14T08:24:36.226Z,-1.8
2016-11-14T08:27:36.265Z,-1.77
2016-11-14T08:28:36.284Z,-1.67
2016-11-14T08:29:36.285Z,-1.52
2016-11-14T08:30:51.219Z,-1.43
2016-11-14T08:31:36.313Z,-1.54
2016-11-14T08:32:36.333Z,-1.51
2016-11-14T08:33:36.346Z,-1.35
2016-11-14T08:34:36.359Z,-1.31
2016-11-14T08:35:36.373Z,-1.35
2016-11-14T08:36:36.383Z,-1.33
2016-11-14T08:37:36.398Z,-1.28
2016-11-14T08:38:36.414Z,-1.16
2016-11-14T08:40:51.353Z,-1.12
2016-11-14T08:41:36.451Z,-1.16
2016-11-14T08:42:36.465Z,-1.27
2016-11-14T08:43:36.480Z,-1.15
2016-11-14T08:44:36.491Z,-1.17
2016-11-14T08:45:36.508Z,-1.16
2016-11-14T08:46:36.521Z,-1.15
2016-11-14T08:47:36.536Z,-0.97
2016-11-14T08:48:36.547Z,-0.89
2016-11-14T08:49:36.612Z,-0.95
2016-11-14T08:50:51.489Z,-0.95
2016-11-14T08:51:36.590Z,-0.85
2016-11-14T08:52:36.906Z,-0.86
2016-11-14T08:53:36.617Z,-0.98
2016-11-14T08:54:36.632Z,-0.85
2016-11-14T08:56:51.574Z,-0.79
2016-11-14T08:57:36.677Z,-0.67
2016-11-14T08:58:36.692Z,-0.62
2016-11-14T08:59:36.703Z,-0.61
2016-11-14T09:00:36.725Z,-0.62
2016-11-14T09:01:36.733Z,-0.54
2016-11-14T09:02:36.754Z,-0.49
2016-11-14T09:03:51.673Z,-0.65
2016-11-14T09:04:36.770Z,-0.6
2016-11-14T09:05:36.785Z,-0.54
2016-11-14T09:06:36.802Z,-0.47
2016-11-14T09:07:36.814Z,-0.42
2016-11-14T09:08:36.832Z,-0.43
2016-11-14T09:09:36.844Z,-0.42
2016-11-14T09:10:36.859Z,-0.49
2016-11-14T09:11:36.904Z,-0.42
2016-11-14T09:12:51.801Z,-0.37
2016-11-14T09:13:36.898Z,-0.25
2016-11-14T09:14:36.917Z,-0.08
2016-11-14T09:15:36.936Z,-0.05
2016-11-14T09:16:36.948Z,0.04
2016-11-14T09:17:37.003Z,0.15
2016-11-14T09:18:36.977Z,0.1
2016-11-14T09:19:36.987Z,0.18
2016-11-14T09:20:51.917Z,0.17
2016-11-14T09:21:37.167Z,0.15
2016-11-14T09:22:37.037Z,0.17
2016-11-14T09:23:37.050Z,0.18
2016-11-14T09:24:37.208Z,0.21
2016-11-14T09:25:37.076Z,0.36
2016-11-14T09:27:37.163Z,0.39
2016-11-14T09:29:37.136Z,0.7
2016-11-14T09:31:37.174Z,0.75
2016-11-14T09:32:37.179Z,0.61
2016-11-14T09:33:37.197Z,0.69
2016-11-14T09:34:37.209Z,0.69
2016-11-14T09:35:37.228Z,0.78
2016-11-14T09:36:37.659Z,0.79
2016-11-14T09:37:37.258Z,1
2016-11-14T09:38:37.278Z,1.06
2016-11-14T09:39:37.336Z,1.15
2016-11-14T09:40:37.303Z,1.16
2016-11-14T09:41:37.317Z,1.04
2016-11-14T09:42:37.344Z,1.05
2016-11-14T09:43:52.299Z,0.97
2016-11-14T09:44:37.363Z,1
2016-11-14T09:46:37.399Z,1.15
2016-11-14T09:47:52.326Z,1.11
2016-11-14T09:48:37.428Z,1.15
2016-11-14T09:49:37.439Z,1.16
2016-11-14T09:50:37.462Z,1.04
2016-11-14T09:51:37.482Z,1.05
2016-11-14T09:52:37.489Z,1.11
2016-11-14T09:53:37.502Z,1.12
2016-11-14T09:54:37.521Z,1.09
2016-11-14T09:55:37.528Z,1.08
2016-11-14T09:56:37.549Z,1.24
2016-11-14T09:57:37.565Z,1.16
2016-11-14T09:58:37.577Z,1.29
2016-11-14T09:59:37.593Z,1.14
2016-11-14T10:01:37.627Z,1.2
2016-11-14T10:02:37.638Z,1.29
2016-11-14T10:03:37.655Z,1.22
2016-11-14T10:04:37.670Z,1.2
2016-11-14T10:05:52.602Z,1.41
2016-11-14T10:06:37.705Z,1.41
2016-11-14T10:07:37.717Z,1.36
2016-11-14T10:08:37.736Z,1.41
2016-11-14T10:09:37.750Z,1.45
2016-11-14T10:10:37.774Z,1.42
2016-11-14T10:11:37.781Z,1.54
2016-11-14T10:12:37.792Z,1.62
2016-11-14T10:13:37.813Z,1.51
2016-11-14T10:14:37.825Z,1.6
2016-11-14T10:15:52.757Z,1.6
2016-11-14T10:17:37.876Z,1.68
2016-11-14T10:18:37.888Z,1.63
2016-11-14T10:19:37.904Z,1.6
2016-11-14T10:20:52.837Z,1.73
2016-11-14T10:21:37.940Z,1.73
2016-11-14T10:22:37.958Z,1.79
2016-11-14T10:23:37.971Z,1.86
2016-11-14T10:24:37.987Z,1.84
2016-11-14T10:25:37.998Z,1.86
2016-11-14T10:26:38.012Z,1.87
2016-11-14T10:27:38.029Z,1.86
2016-11-14T10:28:38.052Z,1.98
2016-11-14T10:29:38.064Z,1.93
2016-11-14T10:30:38.080Z,2.03
2016-11-14T10:31:53.006Z,1.95
2016-11-14T10:32:38.258Z,1.88
2016-11-14T10:33:38.123Z,1.84
2016-11-14T10:34:38.142Z,2.05
2016-11-14T10:35:38.159Z,2.1
2016-11-14T10:36:38.171Z,2.18
2016-11-14T10:37:53.101Z,2.1
2016-11-14T10:38:38.202Z,2.16
2016-11-14T10:39:38.221Z,2.09
2016-11-14T10:40:38.238Z,2.24
2016-11-14T10:41:38.250Z,2.42
2016-11-14T10:42:38.266Z,2.38
2016-11-14T10:44:38.296Z,2.36
2016-11-14T10:45:38.310Z,2.42
2016-11-14T10:47:53.260Z,2.41
2016-11-14T10:48:38.362Z,2.43
2016-11-14T10:49:38.375Z,2.36
2016-11-14T10:50:38.395Z,2.42
2016-11-14T10:51:38.407Z,2.36
2016-11-14T10:52:38.424Z,2.39
2016-11-14T10:53:38.441Z,2.52
2016-11-14T10:54:38.456Z,2.48
2016-11-14T10:55:38.478Z,2.71
2016-11-14T10:56:38.487Z,2.71
2016-11-14T10:57:38.508Z,2.56
2016-11-14T10:58:38.518Z,2.56
2016-11-14T10:59:38.545Z,2.59
2016-11-14T11:01:38.566Z,2.63
2016-11-14T11:02:38.588Z,2.6
2016-11-14T11:03:53.515Z,2.82
2016-11-14T11:04:38.613Z,2.75
2016-11-14T11:05:38.629Z,2.89
2016-11-14T11:06:38.652Z,2.9
2016-11-14T11:07:38.667Z,2.95
2016-11-14T11:08:38.689Z,2.97
2016-11-14T11:09:38.704Z,2.95
2016-11-14T11:10:38.711Z,3.02
2016-11-14T11:11:38.727Z,2.93
2016-11-14T11:12:53.660Z,3.05
2016-11-14T11:13:38.766Z,3.13
2016-11-14T11:15:38.795Z,2.99
2016-11-14T11:16:39.151Z,3.13
2016-11-14T11:17:38.828Z,3.17
2016-11-14T11:18:53.760Z,3.13
2016-11-14T11:19:38.860Z,3.13
2016-11-14T11:20:38.876Z,3.23
2016-11-14T11:21:38.896Z,3.15
2016-11-14T11:22:38.913Z,3.13
2016-11-14T11:23:38.925Z,3.11
2016-11-14T11:24:53.856Z,3.24
2016-11-14T11:25:38.963Z,3.14
2016-11-14T11:26:38.973Z,3.18
2016-11-14T11:27:38.987Z,3.06
2016-11-14T11:28:39.004Z,3.08
2016-11-14T11:29:39.023Z,3.21
2016-11-14T11:31:39.055Z,3.08
2016-11-14T11:32:39.069Z,3.13
2016-11-14T11:33:39.087Z,3.24
2016-11-14T11:35:39.126Z,3.45
2016-11-14T11:37:39.156Z,3.52
2016-11-14T11:38:39.169Z,3.31
2016-11-14T11:39:39.187Z,3.39
2016-11-14T11:40:54.120Z,3.45
2016-11-14T11:41:54.136Z,3.42
2016-11-14T11:42:39.240Z,3.33
2016-11-14T11:43:39.249Z,3.45
2016-11-14T11:44:39.271Z,3.33
2016-11-14T11:45:39.297Z,3.36
2016-11-14T11:46:39.754Z,3.35
2016-11-14T11:47:39.325Z,3.5
2016-11-14T11:48:39.336Z,3.4
2016-11-14T11:51:39.383Z,3.6
2016-11-14T11:52:39.402Z,3.57
2016-11-14T11:53:39.416Z,3.62
2016-11-14T11:54:39.440Z,3.7
2016-11-14T11:55:39.456Z,3.6
2016-11-14T11:56:39.476Z,3.51
2016-11-14T11:57:39.487Z,3.62
2016-11-14T11:58:39.503Z,3.68
2016-11-14T11:59:39.523Z,3.83
2016-11-14T12:00:39.545Z,3.73
2016-11-14T12:01:39.553Z,3.78
2016-11-14T12:02:39.568Z,3.65
2016-11-14T12:03:39.588Z,3.7
2016-11-14T12:04:39.604Z,3.58
2016-11-14T12:05:39.626Z,3.75
2016-11-14T12:06:54.550Z,3.8
2016-11-14T12:07:39.907Z,3.83
2016-11-14T12:09:39.688Z,3.91
2016-11-14T12:10:39.755Z,4.09
2016-11-14T12:11:39.720Z,4.04
2016-11-14T12:12:39.886Z,3.93
2016-11-14T12:13:54.670Z,3.97
2016-11-14T12:14:54.685Z,4.09
2016-11-14T12:15:39.784Z,4
2016-11-14T12:16:39.803Z,4.02
2016-11-14T12:17:39.822Z,4.06
2016-11-14T12:18:39.839Z,4
2016-11-14T12:19:39.855Z,4
2016-11-14T12:20:39.875Z,4.09
2016-11-14T12:21:40.599Z,4.12
2016-11-14T12:22:54.819Z,4.05
2016-11-14T12:23:39.928Z,3.96
2016-11-14T12:24:39.940Z,4.05
2016-11-14T12:25:39.959Z,4.05
2016-11-14T12:26:39.974Z,4.14
2016-11-14T12:27:39.991Z,4.04
2016-11-14T12:28:40.008Z,4.04
2016-11-14T12:29:40.078Z,4.02
2016-11-14T12:30:40.043Z,4.12
2016-11-14T12:31:40.058Z,4.14
2016-11-14T12:32:40.076Z,4.12
2016-11-14T12:33:40.099Z,4.18
2016-11-14T12:34:40.110Z,4.12
2016-11-14T12:35:40.123Z,4.14
2016-11-14T12:36:40.143Z,4.05
2016-11-14T12:38:55.094Z,4.06
2016-11-14T12:39:40.194Z,3.98
2016-11-14T12:40:40.215Z,3.9
2016-11-14T12:41:40.223Z,3.98
2016-11-14T12:42:40.246Z,4.12
2016-11-14T12:43:40.263Z,4.26
2016-11-14T12:44:55.196Z,4.27
2016-11-14T12:45:55.212Z,4.18
2016-11-14T12:46:40.315Z,4.29
2016-11-14T12:47:40.335Z,4.14
2016-11-14T12:48:40.346Z,4.26
2016-11-14T12:49:40.363Z,4.27
2016-11-14T12:50:40.381Z,4.32
2016-11-14T12:51:40.405Z,4.37
2016-11-14T12:52:40.415Z,4.37
2016-11-14T12:53:55.349Z,4.33
2016-11-14T12:54:40.451Z,4.18
2016-11-14T12:56:40.487Z,4.2
2016-11-14T12:57:40.507Z,4.09
2016-11-14T12:58:55.438Z,4.15
2016-11-14T12:59:40.538Z,4.11
2016-11-14T13:00:40.555Z,4.12
2016-11-14T13:01:40.572Z,4.18
2016-11-14T13:02:40.590Z,4.24
2016-11-14T13:03:55.518Z,4.24
2016-11-14T13:04:40.625Z,4.27
2016-11-14T13:05:40.639Z,4.22
2016-11-14T13:07:40.673Z,4.44
2016-11-14T13:08:40.688Z,4.2
2016-11-14T13:09:40.710Z,4.2
2016-11-14T13:10:40.731Z,4.3
2016-11-14T13:11:40.744Z,4.37
2016-11-14T13:12:40.763Z,4.37
2016-11-14T13:13:40.778Z,4.37
2016-11-14T13:14:40.795Z,4.34
2016-11-14T13:15:40.816Z,4.33
2016-11-14T13:16:40.865Z,4.37
2016-11-14T13:17:55.763Z,4.3
2016-11-14T13:18:40.867Z,4.33
2016-11-14T13:19:40.881Z,4.22
2016-11-14T13:20:40.902Z,4.11
2016-11-14T13:22:40.932Z,4.22
2016-11-14T13:23:40.948Z,4.37
2016-11-14T13:25:55.901Z,4.27
2016-11-14T13:26:41.002Z,4.3
2016-11-14T13:27:41.027Z,4.23
2016-11-14T13:28:41.040Z,4.15
2016-11-14T13:29:41.056Z,4.23
2016-11-14T13:30:41.072Z,4.2
2016-11-14T13:31:56.005Z,4.11
2016-11-14T13:32:56.022Z,4.24
2016-11-14T13:33:41.124Z,4.2
2016-11-14T13:34:41.145Z,4.23
2016-11-14T13:35:41.157Z,4.12
2016-11-14T13:36:41.204Z,4.16
2016-11-14T13:37:41.194Z,4.16
2016-11-14T13:38:41.212Z,4.27
2016-11-14T13:39:41.228Z,4.26
2016-11-14T13:40:41.242Z,4.24
2016-11-14T13:41:56.176Z,4.2
2016-11-14T13:42:41.281Z,4.27
2016-11-14T13:43:41.300Z,4.29
2016-11-14T13:44:41.315Z,4.23
2016-11-14T13:45:41.332Z,4.2
2016-11-14T13:46:41.356Z,4.27
2016-11-14T13:48:56.298Z,4.04
2016-11-14T13:49:41.398Z,4.05
2016-11-14T13:50:41.417Z,4.08
2016-11-14T13:51:41.438Z,4.05
2016-11-14T13:52:41.465Z,4.11
2016-11-14T13:54:41.482Z,4.16
2016-11-14T13:57:56.454Z,4.12
2016-11-14T13:58:41.559Z,4.11
2016-11-14T13:59:41.573Z,4.04
2016-11-14T14:00:41.642Z,4
2016-11-14T14:01:41.610Z,3.94
2016-11-14T14:02:41.623Z,3.8
2016-11-14T14:03:41.642Z,3.87
2016-11-14T14:04:56.574Z,3.93
2016-11-14T14:05:41.674Z,3.87
2016-11-14T14:06:56.605Z,3.84
2016-11-14T14:07:41.712Z,3.79
2016-11-14T14:08:41.727Z,3.7
2016-11-14T14:09:41.748Z,3.78
2016-11-14T14:10:41.760Z,3.68
2016-11-14T14:12:41.831Z,3.61
2016-11-14T14:13:56.725Z,3.54
2016-11-14T14:15:41.847Z,3.52